createdAt,value
2022-11-23T00:03:40.362Z,47.2
2022-11-23T00:09:03.320Z,47.2
2022-11-23T00:14:41.823Z,47.1
2022-11-23T00:20:06.164Z,47.1
2022-11-23T00:25:44.216Z,47.1
2022-11-23T00:31:06.589Z,47.1
2022-11-23T00:36:45.194Z,47
2022-11-23T00:42:23.034Z,46.9
2022-11-23T00:47:45.438Z,46.9
2022-11-23T00:53:23.623Z,46.9
2022-11-23T00:59:01.652Z,46.8
2022-11-23T01:04:39.816Z,46.8
2022-11-23T01:10:18.512Z,46.8
2022-11-23T01:15:24.301Z,46.8
2022-11-23T01:20:30.565Z,46.7
2022-11-23T01:25:37.273Z,46.7
2022-11-23T01:30:47.725Z,46.6
2022-11-23T01:36:00.199Z,46.6
2022-11-23T01:41:10.607Z,46.6
2022-11-23T01:46:17.104Z,46.5
2022-11-23T01:51:38.888Z,46.5
2022-11-23T01:56:50.262Z,46.4
2022-11-23T02:01:56.686Z,46.4
2022-11-23T02:07:18.383Z,46.4
2022-11-23T02:12:40.959Z,46.5
2022-11-23T02:18:20.629Z,47.3
2022-11-23T02:23:57.246Z,48.4
2022-11-23T02:29:36.680Z,49.4
2022-11-23T02:35:13.665Z,50.6
2022-11-23T02:40:36.718Z,51.7
2022-11-23T02:46:14.506Z,52.6
2022-11-23T02:51:51.964Z,53.8
2022-11-23T02:57:13.684Z,54.9
2022-11-23T03:02:52.016Z,55.9
2022-11-23T03:08:29.333Z,57
2022-11-23T03:14:06.145Z,57.9
2022-11-23T03:19:28.889Z,58.9
2022-11-23T03:24:51.012Z,59.9
2022-11-23T03:30:28.324Z,60.9
2022-11-23T03:36:05.728Z,61.3
2022-11-23T03:41:44.350Z,61.4
2022-11-23T03:47:21.896Z,61.4
2022-11-23T03:53:00.238Z,61.3
2022-11-23T03:58:38.048Z,61.3
2022-11-23T04:04:16.385Z,61.3
2022-11-23T04:09:54.228Z,61.3
2022-11-23T04:15:32.065Z,61.3
2022-11-23T04:20:38.880Z,61.2
2022-11-23T04:26:20.064Z,61.2
2022-11-23T04:31:57.597Z,61.1
2022-11-23T04:37:03.163Z,61.1
2022-11-23T04:42:41.490Z,61.1
2022-11-23T04:48:06.651Z,61
2022-11-23T04:53:31.768Z,60.9
2022-11-23T04:59:09.504Z,60.9
2022-11-23T05:04:50.640Z,60.9
2022-11-23T05:10:28.447Z,60.9
2022-11-23T05:16:06.450Z,60.8
2022-11-23T05:21:43.633Z,60.8
2022-11-23T05:27:24.783Z,60.8
2022-11-23T05:33:28.277Z,60.7
2022-11-23T05:38:54.797Z,60.6
2022-11-23T05:44:01.404Z,60.6
2022-11-23T05:49:26.247Z,60.6
2022-11-23T05:55:03.589Z,60.5
2022-11-23T06:00:09.580Z,60.5
2022-11-23T06:05:49.326Z,60.4
2022-11-23T06:11:12.164Z,60.4
2022-11-23T06:16:34.733Z,60.4
2022-11-23T06:22:12.598Z,60.3
2022-11-23T06:27:51.348Z,60.3
2022-11-23T06:33:29.394Z,60.3
2022-11-23T06:39:12.160Z,60.2
2022-11-23T06:45:22.397Z,60.1
2022-11-23T06:51:05.529Z,60.1
2022-11-23T06:56:43.539Z,60.1
2022-11-23T07:02:21.085Z,60
2022-11-23T07:07:59.790Z,60
2022-11-23T07:13:38.436Z,59.9
2022-11-23T07:19:15.894Z,59.9
2022-11-23T07:24:58.889Z,59.9
2022-11-23T07:30:25.243Z,59.8
2022-11-23T07:36:04.083Z,59.8
2022-11-23T07:42:39.733Z,59.7
2022-11-23T07:48:18.143Z,59.6
2022-11-23T07:53:58.049Z,59.6
2022-11-23T07:59:37.448Z,59.6
2022-11-23T08:05:59.376Z,59.5
2022-11-23T08:11:42.423Z,59.4
2022-11-23T08:17:04.472Z,59.4
2022-11-23T08:22:48.521Z,59.4
2022-11-23T08:28:27.196Z,59.3
2022-11-23T08:34:05.334Z,59.3
2022-11-23T08:39:43.921Z,59.3
2022-11-23T08:45:28.698Z,59.3
2022-11-23T08:51:11.856Z,59.2
2022-11-23T08:56:39.909Z,59.1
2022-11-23T09:02:17.756Z,59.3
2022-11-23T09:08:02.040Z,59.6
2022-11-23T09:13:42.689Z,60.1
2022-11-23T09:19:25.058Z,60.5
2022-11-23T09:25:10.741Z,60.8
2022-11-23T09:30:54.479Z,61.3
2022-11-23T09:36:33.767Z,61.8
2022-11-23T09:42:36.992Z,62.3
2022-11-23T09:48:16.294Z,62.8
2022-11-23T09:53:54.582Z,63.3
2022-11-23T09:59:36.261Z,63.8
2022-11-23T10:04:59.573Z,64.2
2022-11-23T10:10:37.722Z,64.6
2022-11-23T10:16:20.615Z,64.7
2022-11-23T10:21:58.322Z,64.8
2022-11-23T10:27:36.477Z,65.1
2022-11-23T10:33:19.305Z,65.4
2022-11-23T10:39:04.411Z,65.7
2022-11-23T10:44:41.808Z,65.8
2022-11-23T10:50:20.091Z,65.9
2022-11-23T10:56:01.800Z,65.9
2022-11-23T11:01:39.956Z,65.9
2022-11-23T11:07:52.509Z,65.9
2022-11-23T11:13:34.882Z,66
2022-11-23T11:19:28.239Z,66.1
2022-11-23T11:25:06.443Z,66.1
2022-11-23T11:30:45.812Z,66.1
2022-11-23T11:36:28.130Z,66.3
2022-11-23T11:42:25.550Z,66.5
2022-11-23T11:48:40.407Z,66.5
2022-11-23T11:54:18.193Z,66.5
2022-11-23T11:59:46.227Z,66.4
2022-11-23T12:05:10.704Z,66.4
2022-11-23T12:10:52.055Z,66.4
2022-11-23T12:17:35.997Z,66.4
2022-11-23T12:22:31.543Z,66.3
2022-11-23T12:28:09.581Z,66.3
2022-11-23T12:33:47.739Z,66.3
2022-11-23T12:39:29.687Z,66.2
2022-11-23T12:45:12.656Z,66.2
2022-11-23T12:50:35.278Z,66.1
2022-11-23T12:56:14.451Z,66.1
2022-11-23T13:01:37.567Z,66.1
2022-11-23T13:07:35.378Z,66.1
2022-11-23T13:13:15.949Z,66
2022-11-23T13:18:57.761Z,65.9
2022-11-23T13:24:21.902Z,65.9
2022-11-23T13:30:05.786Z,65.9
2022-11-23T13:36:43.226Z,65.8
2022-11-23T13:42:39.160Z,65.8
2022-11-23T13:54:26.034Z,65.7
2022-11-23T14:00:08.867Z,65.6
2022-11-23T14:05:54.097Z,65.6
2022-11-23T14:11:32.988Z,65.5
2022-11-23T14:17:11.452Z,65.5
2022-11-23T14:22:33.521Z,65.4
2022-11-23T14:28:34.770Z,65.4
2022-11-23T14:34:13.049Z,65.3
2022-11-23T14:39:55.912Z,65.3
2022-11-23T14:45:34.853Z,65.2
2022-11-23T14:51:13.909Z,65.2
2022-11-23T14:56:55.441Z,65.1
2022-11-23T15:02:33.401Z,65.1
2022-11-23T15:08:42.960Z,65
2022-11-23T15:14:05.670Z,65
2022-11-23T15:19:43.723Z,64.9
2022-11-23T15:25:25.637Z,64.9
2022-11-23T15:31:34.309Z,64.8
2022-11-23T15:37:13.702Z,64.8
2022-11-23T15:42:55.904Z,64.8
2022-11-23T15:48:36.622Z,64.7
2022-11-23T15:54:15.129Z,64.6
2022-11-23T15:59:57.989Z,64.6
2022-11-23T16:05:39.103Z,64.6
2022-11-23T16:11:56.465Z,64.5
2022-11-23T16:17:40.193Z,64.4
2022-11-23T16:23:24.228Z,64.4
2022-11-23T16:28:47.452Z,64.3
2022-11-23T16:34:31.929Z,64.3
2022-11-23T16:40:11.951Z,64.1
2022-11-23T16:45:51.332Z,63.9
2022-11-23T16:51:32.739Z,63.8
2022-11-23T16:57:55.346Z,63.7
2022-11-23T17:03:06.020Z,63.6
2022-11-23T17:08:45.104Z,63.6
2022-11-23T17:14:35.083Z,63.5
2022-11-23T17:20:20.184Z,63.4
2022-11-23T17:26:04.323Z,63.4
2022-11-23T17:31:42.564Z,63.3
2022-11-23T17:37:20.344Z,63.3
2022-11-23T17:42:59.063Z,63.2
2022-11-23T17:48:06.355Z,63.1
2022-11-23T17:53:44.280Z,63.1
2022-11-23T17:59:22.369Z,63
2022-11-23T18:04:50.986Z,62.9
2022-11-23T18:10:29.465Z,62.9
2022-11-23T18:16:08.274Z,62.9
2022-11-23T18:21:46.492Z,62.8
2022-11-23T18:27:29.110Z,62.7
2022-11-23T18:33:14.335Z,62.6
2022-11-23T18:38:56.563Z,62.6
2022-11-23T18:44:24.865Z,62.5
2022-11-23T18:49:48.157Z,62.5
2022-11-23T18:55:29.765Z,62.4
2022-11-23T19:01:27.447Z,62.3
2022-11-23T19:07:06.966Z,62.3
2022-11-23T19:12:50.324Z,62.2
2022-11-23T19:18:29.932Z,62.1
2022-11-23T19:23:57.765Z,62.1
2022-11-23T19:29:24.778Z,61.9
2022-11-23T19:34:49.247Z,61.8
2022-11-23T19:39:57.524Z,61.7
2022-11-23T19:45:44.202Z,61.6
2022-11-23T19:51:31.519Z,61.5
2022-11-23T19:57:30.098Z,61.4
2022-11-23T20:03:10.486Z,61.3
2022-11-23T20:08:40.880Z,61.3
2022-11-23T20:14:10.241Z,61.2
2022-11-23T20:19:52.729Z,61.1
2022-11-23T20:25:31.625Z,61.1
2022-11-23T20:31:13.519Z,60.9
2022-11-23T20:36:45.534Z,60.9
2022-11-23T20:42:07.959Z,60.8
2022-11-23T20:48:07.574Z,60.8
2022-11-23T20:53:46.513Z,60.7
2022-11-23T20:59:30.035Z,60.6
2022-11-23T21:05:09.702Z,60.6
2022-11-23T21:11:01.314Z,60.5
2022-11-23T21:16:57.152Z,60.4
2022-11-23T21:22:34.744Z,60.4
2022-11-23T21:28:13.098Z,60.3
2022-11-23T21:33:53.841Z,60.3
2022-11-23T21:39:32.113Z,60.2
2022-11-23T21:44:43.892Z,60.1
2022-11-23T21:49:51.625Z,60.1
2022-11-23T21:55:36.833Z,60
2022-11-23T22:01:04.454Z,59.9
2022-11-23T22:06:43.242Z,59.9
2022-11-23T22:12:29.553Z,59.9
2022-11-23T22:18:08.779Z,59.8
2022-11-23T22:23:46.408Z,59.8
2022-11-23T22:29:13.232Z,59.7
2022-11-23T22:34:52.330Z,59.6
2022-11-23T22:40:24.050Z,59.6
2022-11-23T22:46:05.369Z,59.5
2022-11-23T22:51:43.927Z,59.4
2022-11-23T22:57:10.090Z,59.4
2022-11-23T23:02:48.160Z,59.4
2022-11-23T23:08:11.721Z,59.3
2022-11-23T23:13:48.797Z,59.3
2022-11-23T23:19:11.596Z,59.2
2022-11-23T23:24:34.766Z,59.1
2022-11-23T23:29:56.944Z,59.1
2022-11-23T23:35:35.066Z,59.1
2022-11-23T23:41:12.976Z,58.9
2022-11-23T23:46:50.467Z,58.9
2022-11-23T23:52:28.395Z,58.9
2022-11-23T23:57:51.057Z,58.8
